Bigues

FR-0592 · Lot, Occitanie, 法国

使用的TAF站离机场有35 km的距离
2024年7月22日 11:002024年7月22日 20:00有效
时间
星期一
11:00
40%
星期一
12:00
40%
星期一
13:00
星期一
14:00
星期一
15:00
星期一
16:00
星期一
17:00
星期一
18:00
星期一
19:00
代码
MVFR
MVFR
MVFR
MVFR
MVFR
MVFR
MVFR
MVFR
MVFR
天气
碎云
碎云
碎云
碎云
碎云
碎云
碎云
碎云
碎云
能见度
10 km+
10 km+
10 km+
10 km+
10 km+
10 km+
10 km+
10 km+
10 km+
天花板
1.200 ft
1.200 ft
2.500 ft
2.500 ft
2.500 ft
2.500 ft
2.500 ft
2.500 ft
2.500 ft
280°
280°
280°
280°
280°
280°
280°
280°
280°
280°
280°
280°
280°
280°
280°
280°
280°
280°
速度
5 kt
5 kt
5 kt
5 kt
5 kt
5 kt
5 kt
5 kt
5 kt
阵风
温度/星期日

原版的

TAF LFSL 220800Z 2209/2218 28005KT 9999 BKN025
PROB40 TEMPO 2209/2211 BKN012

TAF Bigues

Bigues是,法国中的小机场。 该机场位于纬度44,74387和经度1,61875。 该机场有一条跑道: 17/35. 这个机场没有ICAO代码,我们使用FR-0592作为参考。 机场在Bordeaux FIR中。

该航空气象观测是针对Brive-Souillac在2024年7月22日 10:00, 当地时间进行的。 从2024年7月22日 11:00到2024年7月22日 20:00, 当地时间有效.

预报

  • 在星期一 11:00和20:00之间

    • 风: 风来自280°方向,速度为5 kt。
    • 能见度: 10 km 或者更多
    • 乌云: 碎云在2.500 ft的高度.
  • 暂时在星期一 11:00和13:00之间 ({一个机会)

    • 乌云: 碎云在1.200 ft的高度.

白天

今天,太阳从06:29升起,在21:30降落。 这适用于Bigues,世界夏令时可能有所不同。 当地时间与世界标准时间之间的时差为+2 小时。 夏令时目前正在进行中。

报告变更